Time;durP1;ratioP1;P1;durP2;ratioP2;P2;SDS_P1;SDS_P2;PMS_P1;PMS_P2;Temp;Humidity;BMP_temperature;BMP_pressure;BME280_temperature;BME280_humidity;BME280_pressure;Samples;Min_cycle;Max_cycle;Signal;HPM_P1;HPM_P2
2022/12/02 00:00:20;;;;;;;15.43;14.13;;;;;;;1.95;100.00;93060.72;5089994;28;20230;-69
2022/12/02 00:02:45;;;;;;;16.67;15.23;;;;;;;2.13;100.00;93058.94;5090973;28;20250;-69
2022/12/02 00:05:13;;;;;;;15.93;14.47;;;;;;;2.07;100.00;93066.72;5092354;28;20916;-69
2022/12/02 00:07:39;;;;;;;14.93;13.70;;;;;;;2.16;100.00;93073.16;5091784;28;20228;-69
2022/12/02 00:10:26;;;;;;;16.13;14.83;;;;;;;2.06;100.00;93054.84;5090853;28;20189;-69
2022/12/02 00:12:52;;;;;;;16.07;14.63;;;;;;;2.25;100.00;93064.91;5090215;28;20220;-69
2022/12/02 00:15:45;;;;;;;17.67;14.83;;;;;;;2.37;100.00;93073.47;5092690;28;20191;-69
2022/12/02 00:18:13;;;;;;;14.80;13.43;;;;;;;2.34;100.00;93068.75;5081652;28;20232;-69
2022/12/02 00:20:38;;;;;;;16.50;14.90;;;;;;;2.31;100.00;93071.78;5091690;28;20180;-69
2022/12/02 00:23:04;;;;;;;16.57;15.37;;;;;;;2.22;100.00;93067.13;5087877;28;20281;-69
2022/12/02 00:25:30;;;;;;;16.13;14.73;;;;;;;2.20;100.00;93075.09;5088935;28;20173;-69
2022/12/02 00:27:57;;;;;;;16.63;15.00;;;;;;;2.31;100.00;93070.97;5090320;28;20224;-69
2022/12/02 00:30:22;;;;;;;16.27;14.60;;;;;;;2.32;100.00;93075.16;5090683;28;20211;-69
2022/12/02 00:32:47;;;;;;;15.73;14.37;;;;;;;2.39;100.00;93070.69;5091089;28;20213;-69
2022/12/02 00:35:15;;;;;;;16.47;15.00;;;;;;;2.27;100.00;93057.78;5090595;28;20200;-68
2022/12/02 00:37:40;;;;;;;16.97;15.30;;;;;;;2.34;100.00;93066.19;5090464;28;20276;-68
2022/12/02 00:40:06;;;;;;;17.87;16.17;;;;;;;2.30;100.00;93066.84;5090367;28;20908;-67
2022/12/02 00:42:31;;;;;;;17.90;16.07;;;;;;;2.25;100.00;93059.78;5083031;28;20255;-68
2022/12/02 00:47:40;;;;;;;17.70;15.70;;;;;;;2.36;100.00;93058.25;5088249;28;20253;-69
2022/12/02 00:50:06;;;;;;;21.80;17.13;;;;;;;2.49;100.00;93060.66;5090524;28;20177;-69
2022/12/02 00:52:31;;;;;;;22.97;17.97;;;;;;;2.32;100.00;93054.53;5089938;28;20229;-69
2022/12/02 00:54:57;;;;;;;20.33;16.63;;;;;;;2.15;100.00;93038.13;5080168;28;20209;-69
2022/12/02 00:57:22;;;;;;;18.57;15.97;;;;;;;2.30;100.00;93053.97;5081692;28;20173;-69
2022/12/02 00:59:47;;;;;;;22.67;18.23;;;;;;;2.18;100.00;93053.91;5088326;28;20200;-67
2022/12/02 01:02:13;;;;;;;20.07;17.10;;;;;;;2.26;100.00;93053.59;5090095;28;20244;-69
2022/12/02 01:04:38;;;;;;;19.33;17.33;;;;;;;2.41;100.00;93054.00;5090469;28;20222;-69
2022/12/02 01:07:03;;;;;;;20.07;18.07;;;;;;;2.24;100.00;93058.19;5090795;28;20204;-69
2022/12/02 01:09:29;;;;;;;22.40;17.63;;;;;;;2.14;100.00;93046.81;5089082;28;20220;-70
2022/12/02 01:11:54;;;;;;;40.13;17.47;;;;;;;2.32;100.00;93054.53;5091527;28;20181;-70
2022/12/02 01:14:20;;;;;;;23.57;16.33;;;;;;;2.35;100.00;93052.28;5083771;28;20259;-69
2022/12/02 01:16:45;;;;;;;23.03;16.57;;;;;;;2.19;100.00;93049.53;5089361;28;20177;-69
2022/12/02 01:19:10;;;;;;;21.50;17.10;;;;;;;2.26;100.00;93050.22;5090406;28;20243;-69
2022/12/02 01:21:36;;;;;;;18.17;16.13;;;;;;;2.29;100.00;93044.69;5091473;28;20185;-69
2022/12/02 01:24:01;;;;;;;23.87;17.77;;;;;;;2.41;100.00;93040.34;5090117;28;20217;-68
2022/12/02 01:26:26;;;;;;;26.10;17.20;;;;;;;2.23;100.00;93032.63;5091717;28;20184;-68
2022/12/02 01:28:52;;;;;;;20.10;17.70;;;;;;;2.22;100.00;93043.97;5090088;28;20225;-69
2022/12/02 01:31:17;;;;;;;26.77;17.60;;;;;;;2.33;100.00;93038.06;5091003;28;20250;-69
2022/12/02 01:33:42;;;;;;;36.10;16.17;;;;;;;2.22;100.00;93043.97;5089084;28;20977;-68
2022/12/02 01:36:08;;;;;;;36.10;15.93;;;;;;;2.30;100.00;93036.72;5091163;28;20188;-69
2022/12/02 01:38:33;;;;;;;40.30;17.43;;;;;;;2.15;100.00;93036.31;5087801;28;20274;-69
2022/12/02 01:40:59;;;;;;;48.67;16.17;;;;;;;2.12;100.00;93039.31;5090855;28;20212;-68
2022/12/02 01:43:25;;;;;;;29.07;16.33;;;;;;;2.23;100.00;93048.09;5090696;28;20308;-68
2022/12/02 01:45:51;;;;;;;30.13;16.53;;;;;;;2.26;100.00;93045.88;5089353;28;20232;-69
2022/12/02 01:48:17;;;;;;;36.37;17.43;;;;;;;2.25;100.00;93044.31;5087948;28;20235;-69
2022/12/02 01:50:42;;;;;;;35.13;15.90;;;;;;;1.92;100.00;93048.28;5090095;28;20190;-68
2022/12/02 01:53:08;;;;;;;63.23;17.37;;;;;;;2.12;100.00;93054.00;5090491;28;20250;-69
2022/12/02 01:55:34;;;;;;;48.23;17.83;;;;;;;2.16;100.00;93055.13;5090643;28;20193;-69
2022/12/02 01:57:59;;;;;;;60.47;15.97;;;;;;;2.05;100.00;93053.28;5076185;28;20226;-69
2022/12/02 02:00:26;;;;;;;61.07;16.77;;;;;;;2.03;100.00;93043.19;5090831;28;20254;-69
2022/12/02 02:02:51;;;;;;;30.80;15.60;;;;;;;2.07;100.00;93035.84;5089681;28;20247;-69
2022/12/02 02:05:21;;;;;;;75.93;16.67;;;;;;;2.21;100.00;93050.13;5090616;28;20248;-69
2022/12/02 02:07:51;;;;;;;70.60;17.10;;;;;;;2.03;100.00;93032.09;5087221;28;20266;-70
2022/12/02 02:10:18;;;;;;;45.73;16.27;;;;;;;2.18;100.00;93048.75;5090474;28;20192;-69
2022/12/02 02:12:45;;;;;;;37.80;14.87;;;;;;;2.10;100.00;93056.78;5088182;28;20227;-69
2022/12/02 02:15:12;;;;;;;43.87;16.50;;;;;;;2.23;100.00;93056.63;5090715;28;20188;-69
2022/12/02 02:17:38;;;;;;;54.30;15.77;;;;;;;2.22;100.00;93056.84;5088111;28;20289;-70
2022/12/02 02:20:06;;;;;;;35.83;14.63;;;;;;;2.24;100.00;93060.00;5090217;28;20207;-69
2022/12/02 02:22:56;;;;;;;21.97;15.27;;;;;;;2.06;100.00;93054.84;5088829;28;20232;-69
2022/12/02 02:25:22;;;;;;;28.53;14.40;;;;;;;2.25;100.00;93053.81;5089860;28;20189;-67
2022/12/02 02:27:55;;;;;;;22.00;14.50;;;;;;;2.27;100.00;93046.69;5088678;28;20228;-69
2022/12/02 02:30:21;;;;;;;32.67;15.00;;;;;;;2.19;100.00;93054.69;5089453;28;20185;-69
2022/12/02 02:32:48;;;;;;;68.73;15.77;;;;;;;2.23;100.00;93045.53;5088597;28;20225;-70
2022/12/02 02:35:14;;;;;;;43.17;15.90;;;;;;;2.18;100.00;93051.31;5089672;28;20180;-69
2022/12/02 02:37:39;;;;;;;27.40;14.00;;;;;;;2.06;100.00;93065.94;5084929;28;20244;-69
2022/12/02 02:40:06;;;;;;;17.47;14.27;;;;;;;2.06;100.00;93072.88;5088941;28;20226;-69
2022/12/02 02:42:32;;;;;;;37.03;13.60;;;;;;;2.08;100.00;93070.88;5088919;28;20216;-69
2022/12/02 02:44:59;;;;;;;51.83;16.53;;;;;;;2.16;100.00;93068.00;5088876;28;20213;-69
2022/12/02 02:47:24;;;;;;;59.90;16.00;;;;;;;2.12;100.00;93064.31;5088540;28;20248;-68
2022/12/02 02:49:49;;;;;;;28.90;14.37;;;;;;;2.11;100.00;93070.44;5087474;28;20206;-69
2022/12/02 02:52:15;;;;;;;18.97;13.87;;;;;;;2.15;100.00;93074.16;5088612;28;20220;-69
2022/12/02 02:54:40;;;;;;;45.77;14.37;;;;;;;2.26;100.00;93084.50;5088642;28;20192;-69
2022/12/02 02:57:08;;;;;;;34.83;15.20;;;;;;;2.15;100.00;93072.38;5089203;28;20183;-70
2022/12/02 02:59:33;;;;;;;31.87;13.60;;;;;;;2.03;100.00;93075.88;5085197;28;20217;-69
2022/12/02 03:02:02;;;;;;;35.60;14.20;;;;;;;2.22;100.00;93072.28;5079795;28;20203;-69
2022/12/02 03:04:27;;;;;;;17.23;13.23;;;;;;;2.15;100.00;93076.75;5088250;28;20216;-69
2022/12/02 03:06:53;;;;;;;33.60;13.37;;;;;;;2.09;100.00;93075.00;5088292;28;20200;-69
2022/12/02 03:09:21;;;;;;;30.03;13.93;;;;;;;2.06;100.00;93080.59;5084832;28;20228;-69
2022/12/02 03:11:50;;;;;;;40.87;14.37;;;;;;;2.23;100.00;93079.78;5085394;28;20219;-68
2022/12/02 03:14:16;;;;;;;28.67;14.20;;;;;;;2.28;100.00;93086.88;5088033;28;20212;-69
2022/12/02 03:16:43;;;;;;;25.40;14.63;;;;;;;2.25;100.00;93079.56;5088789;28;20196;-69
2022/12/02 03:19:09;;;;;;;34.50;14.53;;;;;;;2.23;100.00;93071.28;5087848;28;20307;-69
2022/12/02 03:21:35;;;;;;;30.83;14.63;;;;;;;2.19;100.00;93076.09;5089432;28;20193;-69
2022/12/02 03:24:03;;;;;;;25.50;14.73;;;;;;;2.08;100.00;93065.72;5088090;28;20224;-70
2022/12/02 03:26:29;;;;;;;21.00;14.70;;;;;;;1.97;100.00;93066.44;5089387;28;20203;-69
2022/12/02 03:28:56;;;;;;;35.07;16.00;;;;;;;2.09;100.00;93070.66;5085737;28;20315;-69
2022/12/02 03:31:23;;;;;;;34.77;15.63;;;;;;;2.07;100.00;93088.09;5088918;28;20191;-68
2022/12/02 03:33:49;;;;;;;35.57;16.07;;;;;;;2.12;100.00;93090.06;5085247;28;20232;-69
2022/12/02 03:36:15;;;;;;;34.80;16.53;;;;;;;2.14;100.00;93078.53;5088709;28;20211;-69
2022/12/02 03:38:41;;;;;;;48.63;17.17;;;;;;;1.99;100.00;93079.91;5075021;28;20217;-68
2022/12/02 03:41:07;;;;;;;37.30;17.37;;;;;;;1.98;100.00;93101.50;5088578;28;20195;-69
2022/12/02 03:43:33;;;;;;;26.57;16.60;;;;;;;2.09;100.00;93101.56;5087882;28;20211;-68
2022/12/02 03:45:59;;;;;;;47.30;17.90;;;;;;;2.05;100.00;93090.13;5082656;28;20232;-69
2022/12/02 03:48:25;;;;;;;42.27;18.00;;;;;;;2.02;100.00;93102.63;5087987;28;20216;-69
2022/12/02 03:50:52;;;;;;;40.20;17.87;;;;;;;2.06;100.00;93101.19;5088644;28;20184;-69
2022/12/02 03:53:20;;;;;;;25.50;17.70;;;;;;;2.22;100.00;93098.84;5087764;28;20236;-69
2022/12/02 03:55:47;;;;;;;51.67;16.57;;;;;;;2.17;100.00;93103.84;5088506;28;20188;-69
2022/12/02 03:58:12;;;;;;;27.83;16.27;;;;;;;2.10;100.00;93110.84;5085341;28;20244;-69
2022/12/02 04:00:37;;;;;;;33.77;17.07;;;;;;;2.03;100.00;93107.56;5086507;28;20173;-69
2022/12/02 04:03:03;;;;;;;23.77;17.37;;;;;;;1.87;100.00;93092.69;5083872;28;20281;-69
2022/12/02 04:05:29;;;;;;;26.97;16.57;;;;;;;2.03;100.00;93106.78;5087988;28;20207;-69
2022/12/02 04:07:55;;;;;;;36.90;16.43;;;;;;;2.15;100.00;93100.69;5089033;28;20226;-68
2022/12/02 04:10:20;;;;;;;31.53;16.63;;;;;;;2.14;100.00;93116.34;5088111;28;20212;-71
2022/12/02 04:12:45;;;;;;;42.13;17.00;;;;;;;2.06;100.00;93117.44;5087595;28;20231;-69
2022/12/02 04:15:11;;;;;;;37.27;16.70;;;;;;;1.96;100.00;93096.53;5088907;28;20218;-69
2022/12/02 04:17:36;;;;;;;37.20;16.00;;;;;;;2.17;100.00;93113.34;5085933;28;20224;-69
2022/12/02 04:20:04;;;;;;;57.57;18.50;;;;;;;2.23;100.00;93104.75;5088639;28;20185;-69
2022/12/02 04:22:30;;;;;;;29.20;16.27;;;;;;;2.19;100.00;93111.34;5087422;28;20398;-69
2022/12/02 04:24:57;;;;;;;33.97;16.60;;;;;;;2.12;100.00;93115.81;5088362;28;20184;-69
2022/12/02 04:27:23;;;;;;;37.73;16.53;;;;;;;2.14;100.00;93119.72;5087647;28;20189;-70
2022/12/02 04:29:48;;;;;;;50.90;17.07;;;;;;;2.08;100.00;93119.78;5088518;28;20180;-69
2022/12/02 04:32:14;;;;;;;38.23;17.70;;;;;;;2.05;100.00;93118.44;5086512;28;20196;-69
2022/12/02 04:34:39;;;;;;;32.73;15.93;;;;;;;1.96;100.00;93114.56;5087231;28;20207;-69
2022/12/02 04:37:04;;;;;;;43.60;17.03;;;;;;;1.85;100.00;93106.78;5088292;28;20288;-69
2022/12/02 04:39:30;;;;;;;43.97;18.30;;;;;;;1.98;100.00;93116.94;5086045;28;20243;-69
2022/12/02 04:41:55;;;;;;;31.60;17.93;;;;;;;1.90;100.00;93106.94;5087839;28;20181;-70
2022/12/02 04:44:21;;;;;;;32.20;16.83;;;;;;;2.02;100.00;93120.66;5091644;28;20326;-69
2022/12/02 04:46:46;;;;;;;62.43;17.43;;;;;;;2.13;100.00;93117.38;5091368;28;20193;-68
2022/12/02 04:49:11;;;;;;;37.70;17.47;;;;;;;2.14;100.00;93124.88;5089943;28;20233;-67
2022/12/02 04:51:37;;;;;;;25.73;16.27;;;;;;;2.18;100.00;93126.00;5091027;28;20210;-68
2022/12/02 04:54:02;;;;;;;50.50;16.73;;;;;;;2.12;100.00;93131.25;5089246;28;20292;-68
2022/12/02 04:56:27;;;;;;;28.20;16.50;;;;;;;1.97;100.00;93097.34;5091972;28;20184;-67
2022/12/02 04:58:53;;;;;;;29.33;15.37;;;;;;;2.14;100.00;93135.19;5090972;28;20239;-67
2022/12/02 05:01:18;;;;;;;22.13;15.43;;;;;;;1.98;100.00;93104.84;5090862;28;20199;-68
2022/12/02 05:03:43;;;;;;;23.87;15.73;;;;;;;2.14;100.00;93137.75;5090668;28;20229;-67
2022/12/02 05:06:09;;;;;;;21.23;15.57;;;;;;;2.16;100.00;93128.03;5091109;28;20897;-67
2022/12/02 05:08:34;;;;;;;25.70;16.17;;;;;;;2.19;100.00;93121.66;5088904;28;20940;-67
2022/12/02 05:10:59;;;;;;;23.27;16.37;;;;;;;2.24;100.00;93130.28;5089382;28;20219;-67
2022/12/02 05:13:25;;;;;;;30.97;16.00;;;;;;;2.25;100.00;93134.47;5090980;28;20229;-67
2022/12/02 05:15:50;;;;;;;25.47;16.73;;;;;;;2.20;100.00;93134.31;5091324;28;20223;-67
2022/12/02 05:18:16;;;;;;;34.47;16.93;;;;;;;2.21;100.00;93132.53;5091188;28;20237;-68
2022/12/02 05:20:41;;;;;;;29.00;17.03;;;;;;;2.14;100.00;93142.09;5090845;28;20248;-67
2022/12/02 05:23:07;;;;;;;19.20;15.53;;;;;;;2.17;100.00;93129.59;5090453;28;20223;-67
2022/12/02 05:25:32;;;;;;;24.03;16.80;;;;;;;2.38;100.00;93131.72;5078172;28;20177;-67
2022/12/02 05:27:57;;;;;;;20.77;15.60;;;;;;;2.27;100.00;93137.63;5090399;28;20284;-65
2022/12/02 05:30:23;;;;;;;23.53;15.53;;;;;;;2.32;100.00;93142.13;5090791;28;20192;-67
2022/12/02 05:32:48;;;;;;;21.07;14.83;;;;;;;2.29;100.00;93142.56;5106027;28;20289;-67
2022/12/02 05:35:13;;;;;;;21.33;14.77;;;;;;;2.14;100.00;93142.09;5091332;28;20191;-67
2022/12/02 05:37:39;;;;;;;21.53;15.03;;;;;;;2.39;100.00;93142.81;5090309;28;20221;-67
2022/12/02 05:40:05;;;;;;;32.83;15.60;;;;;;;2.26;100.00;93142.97;5090769;28;20177;-67
2022/12/02 05:42:30;;;;;;;23.80;15.13;;;;;;;2.21;100.00;93150.56;5090489;28;20224;-65
2022/12/02 05:45:00;;;;;;;32.33;15.63;;;;;;;2.19;100.00;93145.63;5082289;28;20242;-66
2022/12/02 05:47:29;;;;;;;19.43;15.10;;;;;;;2.30;100.00;93141.53;5090518;28;20292;-67
2022/12/02 05:49:55;;;;;;;26.40;15.23;;;;;;;2.32;100.00;93153.19;5082406;28;20199;-67
2022/12/02 05:52:26;;;;;;;17.83;14.23;;;;;;;2.42;100.00;93152.69;5090773;28;20246;-68
2022/12/02 05:54:54;;;;;;;25.63;17.03;;;;;;;2.31;100.00;93155.97;5085693;28;20260;-67
2022/12/02 05:57:23;;;;;;;23.10;17.53;;;;;;;2.36;100.00;93153.56;5090602;28;20185;-67
2022/12/02 05:59:49;;;;;;;23.40;15.80;;;;;;;2.02;100.00;93143.81;5089730;28;20211;-67
2022/12/02 06:02:26;;;;;;;22.47;16.80;;;;;;;2.23;100.00;93146.75;5090333;28;20192;-67
2022/12/02 06:04:54;;;;;;;21.30;15.83;;;;;;;2.34;100.00;93153.78;5089015;28;20180;-67
2022/12/02 06:07:21;;;;;;;20.83;16.17;;;;;;;2.46;100.00;93153.84;5089411;28;20185;-67
2022/12/02 06:09:47;;;;;;;18.83;15.33;;;;;;;2.44;100.00;93161.00;5082137;28;20188;-67
2022/12/02 06:12:17;;;;;;;20.63;16.57;;;;;;;2.40;100.00;93159.84;5089945;28;20215;-68
2022/12/02 06:14:51;;;;;;;22.83;17.17;;;;;;;2.42;100.00;93165.56;5090057;28;20214;-67
2022/12/02 06:17:17;;;;;;;18.00;15.17;;;;;;;2.36;100.00;93169.00;5088519;28;20196;-67
2022/12/02 06:19:52;;;;;;;20.00;14.20;;;;;;;2.45;100.00;93188.34;5089914;28;20176;-67
2022/12/02 06:22:28;;;;;;;25.27;16.87;;;;;;;2.36;100.00;93174.97;5089043;28;20185;-71
2022/12/02 06:24:56;;;;;;;24.17;16.53;;;;;;;2.52;100.00;93186.47;5087623;28;20276;-69
2022/12/02 06:27:21;;;;;;;20.43;15.73;;;;;;;2.25;100.00;93178.25;5089170;28;20199;-69
2022/12/02 06:29:57;;;;;;;20.53;15.73;;;;;;;2.30;100.00;93185.34;5090686;28;20185;-69
2022/12/02 06:32:27;;;;;;;23.63;18.43;;;;;;;2.39;100.00;93189.19;5089490;28;20184;-69
2022/12/02 06:34:53;;;;;;;22.00;16.87;;;;;;;2.34;100.00;93197.56;5089906;28;20191;-68
2022/12/02 06:37:27;;;;;;;24.40;15.40;;;;;;;2.32;100.00;93191.06;5089057;28;20220;-66
2022/12/02 06:39:56;;;;;;;20.10;16.10;;;;;;;2.30;100.00;93195.63;5085347;28;20172;-66
2022/12/02 06:42:34;;;;;;;22.67;16.67;;;;;;;2.42;100.00;93193.91;5088468;28;20177;-65
2022/12/02 06:45:26;;;;;;;51.63;28.47;;;;;;;2.47;100.00;93191.50;5083287;28;21049;-66
2022/12/02 06:48:02;;;;;;;35.30;24.00;;;;;;;2.50;100.00;93184.13;5077955;28;20227;-69
2022/12/02 06:50:40;;;;;;;32.20;17.43;;;;;;;2.53;100.00;93190.63;5077520;28;20184;-68
2022/12/02 06:53:26;;;;;;;21.20;16.93;;;;;;;2.38;100.00;93190.97;5085521;28;20224;-70
2022/12/02 06:55:58;;;;;;;20.80;16.67;;;;;;;2.63;100.00;93193.50;5084595;28;20216;-69
2022/12/02 06:58:42;;;;;;;30.87;18.70;;;;;;;2.65;100.00;93197.41;5087330;28;20244;-70
2022/12/02 07:01:14;;;;;;;34.63;16.63;;;;;;;2.30;100.00;93196.44;5084918;28;20176;-70
2022/12/02 07:03:46;;;;;;;35.67;18.03;;;;;;;2.14;100.00;93198.75;5081264;28;20233;-66
2022/12/02 07:06:21;;;;;;;30.70;17.93;;;;;;;2.31;100.00;93192.84;5084640;28;20188;-67
2022/12/02 07:08:47;;;;;;;30.10;18.80;;;;;;;2.54;100.00;93187.03;5080576;28;20243;-67
2022/12/02 07:11:48;;;;;;;41.03;19.90;;;;;;;2.54;100.00;93195.56;5087081;28;20193;-69
2022/12/02 07:14:33;;;;;;;33.97;19.60;;;;;;;2.33;100.00;93200.34;5083442;28;20246;-68
2022/12/02 07:17:23;;;;;;;36.43;22.43;;;;;;;2.68;100.00;93188.47;5087771;28;20209;-67
2022/12/02 07:20:34;;;;;;;33.17;19.27;;;;;;;2.56;100.00;93203.06;5098411;28;20236;-66
2022/12/02 07:23:24;;;;;;;44.57;26.67;;;;;;;3.29;100.00;93201.94;5084881;28;20228;-72
2022/12/02 07:25:51;;;;;;;40.40;23.23;;;;;;;3.30;100.00;93203.50;5086728;28;20204;-69
2022/12/02 07:28:19;;;;;;;35.23;20.70;;;;;;;3.33;100.00;93209.03;5087251;28;20228;-68
2022/12/02 07:30:50;;;;;;;37.27;20.53;;;;;;;3.43;100.00;93194.81;5087303;28;20211;-69
2022/12/02 07:33:16;;;;;;;34.37;18.90;;;;;;;3.41;100.00;93202.78;5087636;28;20225;-70
2022/12/02 07:35:41;;;;;;;31.77;19.37;;;;;;;3.24;100.00;93209.56;5086951;28;20241;-71
2022/12/02 07:38:06;;;;;;;34.77;20.17;;;;;;;3.37;100.00;93206.81;5084543;28;20284;-67
2022/12/02 07:40:32;;;;;;;31.87;19.33;;;;;;;3.35;100.00;93206.22;5087739;28;20200;-67
2022/12/02 07:42:57;;;;;;;31.73;19.80;;;;;;;3.48;100.00;93213.78;5087199;28;20239;-68
2022/12/02 07:45:22;;;;;;;64.47;21.40;;;;;;;3.36;100.00;93223.31;5086995;28;20217;-67
2022/12/02 07:47:48;;;;;;;52.87;20.70;;;;;;;3.33;100.00;93203.88;5083445;28;20306;-68
2022/12/02 07:50:15;;;;;;;45.03;19.07;;;;;;;3.49;100.00;93219.75;5086734;28;20191;-68
2022/12/02 07:52:40;;;;;;;38.77;20.20;;;;;;;3.36;100.00;93218.16;5084372;28;20231;-67
2022/12/02 07:55:06;;;;;;;50.93;21.33;;;;;;;2.75;100.00;93227.84;5082841;28;20189;-67
2022/12/02 07:57:33;;;;;;;45.97;22.23;;;;;;;3.33;100.00;93226.31;5085018;28;20228;-67
2022/12/02 07:59:58;;;;;;;39.27;20.67;;;;;;;3.39;100.00;93229.81;5083910;28;20196;-68
2022/12/02 08:02:23;;;;;;;47.47;21.83;;;;;;;3.53;100.00;93229.41;5080250;28;20184;-68
2022/12/02 08:04:49;;;;;;;36.90;19.70;;;;;;;3.56;100.00;93234.13;5086563;28;20193;-68
2022/12/02 08:07:14;;;;;;;58.23;21.60;;;;;;;3.48;100.00;93231.06;5085629;28;20257;-68
2022/12/02 08:09:39;;;;;;;42.67;21.63;;;;;;;2.75;100.00;93184.81;5079147;28;20231;-68
2022/12/02 08:12:05;;;;;;;38.37;20.10;;;;;;;3.12;100.00;93221.63;5082869;28;20182;-68
2022/12/02 08:14:30;;;;;;;39.80;21.53;;;;;;;2.79;100.00;93195.47;5082585;28;20212;-69
2022/12/02 08:16:56;;;;;;;45.17;21.37;;;;;;;3.49;100.00;93232.66;5087785;28;20189;-68
2022/12/02 08:19:21;;;;;;;49.13;21.73;;;;;;;3.62;100.00;93238.41;5085255;28;20287;-68
2022/12/02 08:21:46;;;;;;;48.50;22.00;;;;;;;3.64;100.00;93214.97;5085044;28;20215;-69
2022/12/02 08:24:12;;;;;;;46.77;21.27;;;;;;;3.65;100.00;93235.38;5085950;28;20216;-67
2022/12/02 08:26:37;;;;;;;37.03;21.27;;;;;;;3.72;100.00;93237.88;5088512;28;20197;-66
2022/12/02 08:29:03;;;;;;;47.80;22.83;;;;;;;3.28;100.00;93241.66;5088746;28;20220;-68
2022/12/02 08:31:28;;;;;;;49.57;22.63;;;;;;;3.39;100.00;93237.56;5087891;28;20204;-68
2022/12/02 08:33:54;;;;;;;37.40;22.10;;;;;;;3.65;100.00;93243.13;5089367;28;20225;-69
2022/12/02 08:36:20;;;;;;;38.33;23.30;;;;;;;3.61;100.00;93244.56;5091374;28;20188;-68
2022/12/02 08:38:46;;;;;;;47.37;22.10;;;;;;;3.66;100.00;93236.19;5086705;28;20216;-69
2022/12/02 08:41:12;;;;;;;27.30;21.10;;;;;;;3.69;100.00;93238.31;5082697;28;20211;-71
2022/12/02 08:43:38;;;;;;;42.70;22.30;;;;;;;3.25;100.00;93242.88;5080487;28;20221;-69
2022/12/02 08:46:04;;;;;;;45.57;22.33;;;;;;;3.22;100.00;93242.53;5080538;28;20240;-68
2022/12/02 08:48:29;;;;;;;43.07;22.20;;;;;;;3.41;100.00;93251.78;5078088;28;20220;-68
2022/12/02 08:50:55;;;;;;;36.40;21.97;;;;;;;3.54;100.00;93240.50;5084100;28;20180;-69
2022/12/02 08:53:20;;;;;;;36.13;22.43;;;;;;;3.62;100.00;93237.63;5089425;28;20221;-69
2022/12/02 08:55:46;;;;;;;35.10;23.37;;;;;;;3.84;100.00;93257.56;5090630;28;20200;-68
2022/12/02 08:58:12;;;;;;;33.03;22.40;;;;;;;3.73;100.00;93250.56;5079185;28;20313;-70
2022/12/02 09:00:39;;;;;;;33.37;21.37;;;;;;;3.81;100.00;93257.19;5087411;28;20226;-70
2022/12/02 09:03:05;;;;;;;37.77;23.73;;;;;;;3.69;100.00;93257.16;5089147;28;20220;-71
2022/12/02 09:05:31;;;;;;;40.33;23.00;;;;;;;3.64;100.00;93262.22;5079748;28;20194;-66
2022/12/02 09:07:56;;;;;;;37.93;22.80;;;;;;;3.68;100.00;93257.38;5086497;28;20232;-69
2022/12/02 09:10:22;;;;;;;37.70;23.83;;;;;;;3.93;100.00;93258.00;5089413;28;20192;-70
2022/12/02 09:12:47;;;;;;;41.27;24.47;;;;;;;3.71;100.00;93244.03;5085595;28;20220;-68
2022/12/02 09:15:12;;;;;;;37.07;25.47;;;;;;;3.70;100.00;93257.97;5090617;28;20191;-68
2022/12/02 09:17:38;;;;;;;43.63;24.87;;;;;;;3.54;100.00;93220.66;5090421;28;20283;-67
2022/12/02 09:20:04;;;;;;;39.90;25.73;;;;;;;3.45;100.00;93226.34;5091363;28;20184;-69
2022/12/02 09:22:29;;;;;;;45.67;25.57;;;;;;;3.70;100.00;93250.22;5089146;28;20226;-69
2022/12/02 09:24:54;;;;;;;39.70;24.47;;;;;;;3.30;100.00;93242.22;5090574;28;20192;-67
2022/12/02 09:27:20;;;;;;;42.23;23.67;;;;;;;3.44;100.00;93240.25;5090831;28;20289;-68
2022/12/02 09:29:45;;;;;;;41.53;26.30;;;;;;;3.91;100.00;93247.91;5090411;28;20208;-68
2022/12/02 09:32:11;;;;;;;34.40;23.67;;;;;;;4.12;100.00;93252.53;5087968;28;20322;-71
2022/12/02 09:34:36;;;;;;;66.27;23.83;;;;;;;4.03;100.00;93250.50;5091376;28;20213;-69
2022/12/02 09:37:02;;;;;;;44.43;25.33;;;;;;;4.05;100.00;93253.63;5088543;28;20950;-69
2022/12/02 09:39:27;;;;;;;39.90;23.47;;;;;;;4.09;100.00;93249.59;5086815;28;20218;-69
2022/12/02 09:41:52;;;;;;;35.37;22.97;;;;;;;4.17;100.00;93246.69;5088989;28;20218;-69
2022/12/02 09:44:18;;;;;;;57.67;24.73;;;;;;;4.13;100.00;93246.34;5090798;28;20341;-66
2022/12/02 10:03:59;;;;;;;46.30;28.00;;;;;;;3.78;100.00;93221.50;5093824;27;1299193;-67
2022/12/02 10:06:27;;;;;;;49.27;27.07;;;;;;;3.91;100.00;93234.97;5123767;28;20196;-66
2022/12/02 10:08:55;;;;;;;49.37;28.50;;;;;;;3.92;100.00;93218.47;5126546;28;20571;-68
2022/12/02 10:11:26;;;;;;;57.03;29.57;;;;;;;4.21;100.00;93238.28;5119575;28;20203;-71
2022/12/02 10:13:53;;;;;;;46.23;26.97;;;;;;;4.04;100.00;93228.81;5119389;28;20202;-67
2022/12/02 10:16:19;;;;;;;44.47;30.80;;;;;;;4.00;100.00;93215.56;5121599;28;20198;-68
2022/12/02 10:18:45;;;;;;;50.53;29.97;;;;;;;4.23;100.00;93230.28;5122888;28;20171;-68
2022/12/02 10:21:11;;;;;;;49.73;29.60;;;;;;;4.31;100.00;93209.28;5122715;28;20195;-68
2022/12/02 10:23:58;;;;;;;49.73;30.97;;;;;;;4.30;100.00;93225.78;5123022;28;20207;-67
2022/12/02 10:26:24;;;;;;;52.83;29.87;;;;;;;4.27;100.00;93227.03;5125240;28;20213;-69
2022/12/02 10:29:11;;;;;;;48.67;28.93;;;;;;;4.07;100.00;93220.63;5120404;28;20199;-67
2022/12/02 10:31:37;;;;;;;45.20;28.03;;;;;;;4.35;100.00;93218.16;5119327;28;20176;-67
2022/12/02 10:34:05;;;;;;;43.50;27.73;;;;;;;4.47;100.00;93214.53;5122081;28;20183;-68
2022/12/02 10:36:41;;;;;;;51.97;30.30;;;;;;;4.41;100.00;93230.16;5120816;28;20176;-68
2022/12/02 10:39:25;;;;;;;45.67;28.53;;;;;;;4.59;100.00;93230.81;5123249;28;20737;-68
2022/12/02 10:42:03;;;;;;;44.37;28.70;;;;;;;4.65;100.00;93232.50;5121508;28;20203;-70
2022/12/02 10:44:41;;;;;;;48.23;29.00;;;;;;;4.71;100.00;93218.69;5121952;28;20183;-68
2022/12/02 10:47:21;;;;;;;47.80;29.77;;;;;;;4.73;100.00;93219.22;5080840;28;20220;-68
2022/12/02 10:49:51;;;;;;;42.27;28.17;;;;;;;4.72;100.00;93217.66;5082563;28;20200;-69
2022/12/02 10:52:17;;;;;;;43.73;28.17;;;;;;;4.83;100.00;93221.22;5081201;28;20243;-69
2022/12/02 10:54:46;;;;;;;42.93;30.40;;;;;;;4.75;100.00;93219.00;5079845;28;20212;-70
2022/12/02 10:57:22;;;;;;;49.53;29.73;;;;;;;4.83;100.00;93211.69;5080038;28;20297;-71
2022/12/02 10:59:47;;;;;;;52.50;30.43;;;;;;;4.76;100.00;93218.78;5081771;28;20240;-70
2022/12/02 11:02:20;;;;;;;46.27;29.40;;;;;;;4.95;100.00;93215.03;5079998;28;20229;-71
2022/12/02 11:04:45;;;;;;;44.60;30.00;;;;;;;4.89;100.00;93221.13;5083716;28;20228;-70
2022/12/02 11:07:15;;;;;;;51.47;31.37;;;;;;;4.89;100.00;93205.59;5081175;28;20221;-70
2022/12/02 11:09:45;;;;;;;47.73;30.00;;;;;;;5.09;100.00;93212.94;5080752;28;20185;-68
2022/12/02 11:12:34;;;;;;;44.83;27.37;;;;;;;5.12;100.00;93215.06;5082605;28;20229;-70
2022/12/02 11:15:00;;;;;;;40.00;27.03;;;;;;;5.02;100.00;93217.47;5069689;28;20229;-69
2022/12/02 11:17:46;;;;;;;56.83;31.00;;;;;;;5.00;100.00;93223.91;5066649;28;20237;-69
2022/12/02 11:20:39;;;;;;;44.70;28.17;;;;;;;4.57;100.00;93227.69;5067336;28;20216;-70
2022/12/02 11:23:14;;;;;;;47.87;29.67;;;;;;;4.60;100.00;93237.59;5068062;28;20241;-74
2022/12/02 11:25:42;;;;;;;46.50;28.83;;;;;;;4.75;100.00;93230.13;5065291;28;20236;-70
2022/12/02 11:28:30;;;;;;;42.33;27.93;;;;;;;4.69;100.00;93238.81;5071024;28;20200;-70
2022/12/02 11:31:24;;;;;;;44.63;28.53;;;;;;;4.86;100.00;93228.53;5067192;28;20242;-67
2022/12/02 11:33:54;;;;;;;48.83;28.97;;;;;;;4.83;100.00;93245.31;5063576;28;20190;-69
2022/12/02 11:36:27;;;;;;;54.17;28.90;;;;;;;4.91;100.00;93232.03;5069100;28;20233;-70
2022/12/02 11:38:53;;;;;;;49.70;29.90;;;;;;;4.89;100.00;93236.63;5069552;28;20205;-69
2022/12/02 11:41:29;;;;;;;43.97;27.60;;;;;;;4.92;100.00;93243.13;5070565;28;20255;-69